createdAt,value
2018-06-02T00:00:54.931Z,8.00
2018-06-02T00:01:54.954Z,8.00
2018-06-02T00:02:54.983Z,8.00
2018-06-02T00:03:55.002Z,8.00
2018-06-02T00:04:55.026Z,8.00
2018-06-02T00:05:55.049Z,8.00
2018-06-02T00:06:55.072Z,8.00
2018-06-02T00:07:55.097Z,8.00
2018-06-02T00:08:55.170Z,8.00
2018-06-02T00:09:55.144Z,8.00
2018-06-02T00:10:55.169Z,8.00
2018-06-02T00:11:55.191Z,4.00
2018-06-02T00:12:55.218Z,4.00
2018-06-02T00:13:55.241Z,4.00
2018-06-02T00:14:55.263Z,4.00
2018-06-02T00:15:55.286Z,4.00
2018-06-02T00:16:55.310Z,4.00
2018-06-02T00:17:55.333Z,4.00
2018-06-02T00:18:55.357Z,4.00
2018-06-02T00:19:55.387Z,4.00
2018-06-02T00:20:55.404Z,4.00
2018-06-02T00:21:55.426Z,4.00
2018-06-02T00:22:55.452Z,4.00
2018-06-02T00:23:55.475Z,4.00
2018-06-02T00:24:55.498Z,4.00
2018-06-02T00:25:55.570Z,4.00
2018-06-02T00:26:55.549Z,4.00
2018-06-02T00:27:55.568Z,4.00
2018-06-02T00:28:55.593Z,4.00
2018-06-02T00:29:55.614Z,4.00
2018-06-02T00:30:55.638Z,4.00
2018-06-02T00:31:55.661Z,4.00
2018-06-02T00:32:55.734Z,4.00
2018-06-02T00:33:55.707Z,4.00
2018-06-02T00:34:55.731Z,4.00
2018-06-02T00:35:55.755Z,4.00
2018-06-02T00:36:55.779Z,4.00
2018-06-02T00:37:55.803Z,4.00
2018-06-02T00:38:55.825Z,4.00
2018-06-02T00:39:55.850Z,4.00
2018-06-02T00:40:55.873Z,4.00
2018-06-02T00:41:55.896Z,4.00
2018-06-02T00:42:55.920Z,4.00
2018-06-02T00:43:55.943Z,4.00
2018-06-02T00:44:55.967Z,4.00
2018-06-02T00:45:55.990Z,4.00
2018-06-02T00:46:56.013Z,4.00
2018-06-02T00:47:56.040Z,4.00
2018-06-02T00:48:56.062Z,4.00
2018-06-02T00:49:56.084Z,4.00
2018-06-02T00:50:56.112Z,4.00
2018-06-02T00:51:56.133Z,4.00
2018-06-02T00:52:56.157Z,4.00
2018-06-02T00:53:56.179Z,4.00
2018-06-02T00:54:56.204Z,4.00
2018-06-02T00:55:56.228Z,4.00
2018-06-02T00:56:56.250Z,4.00
2018-06-02T00:57:56.273Z,4.00
2018-06-02T00:58:56.298Z,4.00
2018-06-02T00:59:56.371Z,4.00
2018-06-02T01:00:56.345Z,4.00
2018-06-02T01:01:56.376Z,4.00
2018-06-02T01:02:56.392Z,4.00
2018-06-02T01:03:56.421Z,4.00
2018-06-02T01:04:56.440Z,4.00
2018-06-02T01:05:56.471Z,4.00
2018-06-02T01:06:56.488Z,4.00
2018-06-02T01:07:56.510Z,4.00
2018-06-02T01:08:56.535Z,4.00
2018-06-02T01:09:56.558Z,4.00
2018-06-02T01:10:56.582Z,4.00
2018-06-02T01:11:56.607Z,4.00
2018-06-02T01:12:56.630Z,4.00
2018-06-02T01:13:56.652Z,4.00
2018-06-02T01:14:56.677Z,4.00
2018-06-02T01:15:56.701Z,4.00
2018-06-02T01:16:56.729Z,4.00
2018-06-02T01:17:56.748Z,4.00
2018-06-02T01:18:56.771Z,4.00
2018-06-02T01:19:56.800Z,4.00
2018-06-02T01:20:56.881Z,4.00
2018-06-02T01:21:56.842Z,4.00
2018-06-02T01:22:56.870Z,4.00
2018-06-02T01:23:56.888Z,4.00
2018-06-02T01:24:56.912Z,4.00
2018-06-02T01:25:56.935Z,4.00
2018-06-02T01:26:56.959Z,4.00
2018-06-02T01:27:56.983Z,4.00
2018-06-02T01:28:57.007Z,4.00
2018-06-02T01:29:57.029Z,4.00
2018-06-02T01:30:57.054Z,4.00
2018-06-02T01:31:57.077Z,4.00
2018-06-02T01:32:57.100Z,4.00
2018-06-02T01:33:57.126Z,4.00
2018-06-02T01:34:57.146Z,4.00
2018-06-02T01:35:57.171Z,4.00
2018-06-02T01:36:57.193Z,4.00
2018-06-02T01:37:57.219Z,4.00
2018-06-02T01:38:57.248Z,4.00
2018-06-02T01:39:57.263Z,4.00
2018-06-02T01:40:57.292Z,4.00
2018-06-02T01:41:57.310Z,4.00
2018-06-02T01:42:57.333Z,4.00
2018-06-02T01:43:57.359Z,4.00
2018-06-02T01:44:57.380Z,4.00
2018-06-02T01:45:57.403Z,4.00
2018-06-02T01:46:57.427Z,4.00
2018-06-02T01:47:57.449Z,4.00
2018-06-02T01:48:57.473Z,4.00
2018-06-02T01:49:57.496Z,4.00
2018-06-02T01:50:57.520Z,4.00
2018-06-02T01:51:57.593Z,4.00
2018-06-02T01:52:57.566Z,4.00
2018-06-02T01:53:57.590Z,4.00
2018-06-02T01:54:57.616Z,4.00
2018-06-02T01:55:57.637Z,4.00
2018-06-02T01:56:57.664Z,4.00
2018-06-02T01:57:57.683Z,4.00
2018-06-02T01:58:57.706Z,4.00
2018-06-02T01:59:57.729Z,4.00
2018-06-02T02:00:57.753Z,4.00
2018-06-02T02:01:57.781Z,4.00
2018-06-02T02:02:57.799Z,4.00
2018-06-02T02:03:57.828Z,4.00
2018-06-02T02:04:57.847Z,4.00
2018-06-02T02:05:57.869Z,4.00
2018-06-02T02:06:57.894Z,4.00
2018-06-02T02:07:57.916Z,4.00
2018-06-02T02:08:57.941Z,4.00
2018-06-02T02:09:57.961Z,4.00
2018-06-02T02:10:57.985Z,4.00
2018-06-02T02:11:58.008Z,4.00
2018-06-02T02:12:58.032Z,4.00
2018-06-02T02:13:58.054Z,4.00
2018-06-02T02:14:58.082Z,4.00
2018-06-02T02:15:58.103Z,4.00
2018-06-02T02:16:58.126Z,4.00
2018-06-02T02:17:58.149Z,4.00
2018-06-02T02:18:58.170Z,4.00
2018-06-02T02:19:58.194Z,4.00
2018-06-02T02:20:58.216Z,4.00
2018-06-02T02:21:58.239Z,4.00
2018-06-02T02:22:58.262Z,4.00
2018-06-02T02:23:58.485Z,4.00
2018-06-02T02:24:58.308Z,4.00
2018-06-02T02:25:58.331Z,4.00
2018-06-02T02:26:58.354Z,4.00
2018-06-02T02:27:58.378Z,4.00
2018-06-02T02:28:58.401Z,4.00
2018-06-02T02:29:58.423Z,4.00
2018-06-02T02:30:58.449Z,4.00
2018-06-02T02:31:58.471Z,4.00
2018-06-02T02:32:58.493Z,4.00
2018-06-02T02:33:58.518Z,4.00
2018-06-02T02:34:58.544Z,4.00
2018-06-02T02:35:58.565Z,4.00
2018-06-02T02:36:58.587Z,4.00
2018-06-02T02:37:58.631Z,4.00
2018-06-02T02:38:58.638Z,4.00
2018-06-02T02:39:58.682Z,4.00
2018-06-02T02:40:58.681Z,4.00
2018-06-02T02:41:58.702Z,4.00
2018-06-02T02:42:58.777Z,8.00
2018-06-02T02:43:58.753Z,8.00
2018-06-02T02:44:58.774Z,8.00
2018-06-02T02:45:58.830Z,8.00
2018-06-02T02:46:58.821Z,8.00
2018-06-02T02:47:58.871Z,8.00
2018-06-02T02:48:58.868Z,8.00
2018-06-02T02:49:58.891Z,8.00
2018-06-02T02:50:58.914Z,4.00
2018-06-02T02:51:58.937Z,4.00
2018-06-02T02:52:58.961Z,8.00
2018-06-02T02:53:58.983Z,4.00
2018-06-02T02:54:59.008Z,8.00
2018-06-02T02:55:59.031Z,8.00
2018-06-02T02:56:59.055Z,8.00
2018-06-02T02:57:59.078Z,8.00
2018-06-02T02:58:59.100Z,8.00
2018-06-02T02:59:59.125Z,8.00
2018-06-02T03:00:59.146Z,8.00
2018-06-02T03:01:59.169Z,8.00
2018-06-02T03:02:59.195Z,8.00
2018-06-02T03:03:59.217Z,12.00
2018-06-02T03:04:59.240Z,16.00
2018-06-02T03:05:59.264Z,16.00
2018-06-02T03:06:59.289Z,12.00
2018-06-02T03:07:59.309Z,12.00
2018-06-02T03:08:59.334Z,16.00
2018-06-02T03:09:59.356Z,16.00
2018-06-02T03:10:59.379Z,16.00
2018-06-02T03:11:59.402Z,16.00
2018-06-02T03:12:59.427Z,20.00
2018-06-02T03:13:59.454Z,16.00
2018-06-02T03:14:59.471Z,16.00
2018-06-02T03:15:59.498Z,16.00
2018-06-02T03:16:59.518Z,16.00
2018-06-02T03:17:59.543Z,20.00
2018-06-02T03:18:59.565Z,20.00
2018-06-02T03:19:59.665Z,20.00
2018-06-02T03:20:59.610Z,20.00
2018-06-02T03:21:59.633Z,24.00
2018-06-02T03:22:59.656Z,24.00
2018-06-02T03:23:59.679Z,28.00
2018-06-02T03:24:59.703Z,28.00
2018-06-02T03:25:59.726Z,32.00
2018-06-02T03:26:59.750Z,40.00
2018-06-02T03:27:59.773Z,40.00
2018-06-02T03:28:59.796Z,48.00
2018-06-02T03:29:59.818Z,48.00
2018-06-02T03:30:59.843Z,52.00
2018-06-02T03:31:59.867Z,52.00
2018-06-02T03:32:59.888Z,56.00
2018-06-02T03:33:59.910Z,56.00
2018-06-02T03:34:59.934Z,60.00
2018-06-02T03:35:59.958Z,60.00
2018-06-02T03:36:59.982Z,60.00
2018-06-02T03:38:00.007Z,72.00
2018-06-02T03:39:00.027Z,72.00
2018-06-02T03:40:00.050Z,76.00
2018-06-02T03:41:00.074Z,84.00
2018-06-02T03:42:00.095Z,100.00
2018-06-02T03:43:00.120Z,108.00
2018-06-02T03:44:00.144Z,120.00
2018-06-02T03:45:00.168Z,128.00
2018-06-02T03:46:00.192Z,148.00
2018-06-02T03:47:00.212Z,152.00
2018-06-02T03:48:00.239Z,140.00
2018-06-02T03:49:00.264Z,136.00
2018-06-02T03:50:00.281Z,144.00
2018-06-02T03:51:00.309Z,148.00
2018-06-02T03:52:00.335Z,140.00
2018-06-02T03:53:00.352Z,132.00
2018-06-02T03:54:00.373Z,132.00
2018-06-02T03:55:00.402Z,132.00
2018-06-02T03:56:00.422Z,132.00
2018-06-02T03:57:00.446Z,132.00
2018-06-02T03:58:00.471Z,136.00
2018-06-02T03:59:00.490Z,144.00
2018-06-02T04:00:00.513Z,152.00
2018-06-02T04:01:00.540Z,172.00
2018-06-02T04:02:06.827Z,180.00
2018-06-02T04:03:00.583Z,188.00
2018-06-02T04:04:00.607Z,208.00
2018-06-02T04:05:00.630Z,212.00
2018-06-02T04:06:00.653Z,220.00
2018-06-02T04:07:00.680Z,212.00
2018-06-02T04:08:00.702Z,204.00
2018-06-02T04:09:00.723Z,200.00
2018-06-02T04:10:00.745Z,204.00
2018-06-02T04:11:00.772Z,208.00
2018-06-02T04:12:00.793Z,224.00
2018-06-02T04:13:00.816Z,224.00
2018-06-02T04:14:00.839Z,228.00
2018-06-02T04:15:00.863Z,244.00
2018-06-02T04:16:00.890Z,260.00
2018-06-02T04:17:00.912Z,260.00
2018-06-02T04:18:00.934Z,260.00
2018-06-02T04:19:00.955Z,252.00
2018-06-02T04:20:00.982Z,240.00
2018-06-02T04:21:01.002Z,256.00
2018-06-02T04:22:01.024Z,268.00
2018-06-02T04:23:01.048Z,272.00
2018-06-02T04:24:01.071Z,268.00
2018-06-02T04:25:01.098Z,256.00
2018-06-02T04:26:01.120Z,260.00
2018-06-02T04:27:01.141Z,268.00
2018-06-02T04:28:01.165Z,276.00
2018-06-02T04:29:01.189Z,260.00
2018-06-02T04:30:01.212Z,252.00
2018-06-02T04:31:01.237Z,244.00
2018-06-02T04:32:01.258Z,244.00
2018-06-02T04:33:01.281Z,252.00
2018-06-02T04:34:01.305Z,244.00
2018-06-02T04:35:01.328Z,244.00
2018-06-02T04:36:01.351Z,252.00
2018-06-02T04:37:01.374Z,252.00
2018-06-02T04:38:01.398Z,260.00
2018-06-02T04:39:01.422Z,264.00
2018-06-02T04:40:01.444Z,304.00
2018-06-02T04:41:01.472Z,312.00
2018-06-02T04:42:01.490Z,332.00
2018-06-02T04:43:01.514Z,368.00
2018-06-02T04:44:01.539Z,388.00
2018-06-02T04:45:01.561Z,364.00
2018-06-02T04:46:01.583Z,368.00
2018-06-02T04:47:01.611Z,356.00
2018-06-02T04:48:01.634Z,356.00
2018-06-02T04:49:01.655Z,340.00
2018-06-02T04:50:01.677Z,360.00
2018-06-02T04:51:01.700Z,412.00
2018-06-02T04:52:01.724Z,408.00
2018-06-02T04:53:01.747Z,440.00
2018-06-02T04:54:01.771Z,428.00
2018-06-02T04:55:01.794Z,440.00
2018-06-02T04:56:01.819Z,484.00
2018-06-02T04:57:01.842Z,496.00
2018-06-02T04:58:01.864Z,512.00
2018-06-02T04:59:01.887Z,532.00
2018-06-02T05:00:01.911Z,532.00
2018-06-02T05:01:01.935Z,528.00
2018-06-02T05:02:01.958Z,556.00
2018-06-02T05:03:01.981Z,548.00
2018-06-02T05:04:02.006Z,560.00
2018-06-02T05:05:02.029Z,556.00
2018-06-02T05:06:02.051Z,624.00
2018-06-02T05:07:02.074Z,688.00
2018-06-02T05:08:02.098Z,668.00
2018-06-02T05:09:02.121Z,632.00
2018-06-02T05:10:02.145Z,640.00
2018-06-02T05:11:02.169Z,656.00
2018-06-02T05:12:02.193Z,664.00
2018-06-02T05:13:02.215Z,632.00
2018-06-02T05:14:02.238Z,612.00
2018-06-02T05:15:02.262Z,600.00
2018-06-02T05:16:02.285Z,668.00
2018-06-02T05:17:02.309Z,676.00
2018-06-02T05:18:02.331Z,716.00
2018-06-02T05:19:02.355Z,716.00
2018-06-02T05:20:02.379Z,732.00
2018-06-02T05:21:02.403Z,760.00
2018-06-02T05:22:02.425Z,712.00
2018-06-02T05:23:02.453Z,764.00
2018-06-02T05:24:02.472Z,792.00
2018-06-02T05:25:02.497Z,780.00
2018-06-02T05:26:02.519Z,784.00
2018-06-02T05:27:02.544Z,732.00
2018-06-02T05:28:02.570Z,736.00
2018-06-02T05:29:02.594Z,756.00
2018-06-02T05:30:02.614Z,712.00
2018-06-02T05:31:02.637Z,680.00
2018-06-02T05:32:02.660Z,664.00
2018-06-02T05:33:02.688Z,664.00
2018-06-02T05:34:02.707Z,704.00
2018-06-02T05:35:02.732Z,720.00
2018-06-02T05:36:02.754Z,768.00
2018-06-02T05:37:02.779Z,808.00
2018-06-02T05:38:02.800Z,828.00
2018-06-02T05:39:02.823Z,860.00
2018-06-02T05:40:02.848Z,876.00
2018-06-02T05:41:02.871Z,864.00
2018-06-02T05:42:02.893Z,852.00
2018-06-02T05:43:02.921Z,800.00
2018-06-02T05:44:02.942Z,812.00
2018-06-02T05:45:02.965Z,800.00
2018-06-02T05:46:03.050Z,800.00
2018-06-02T05:47:03.012Z,780.00
2018-06-02T05:48:03.087Z,792.00
2018-06-02T05:49:03.061Z,760.00
2018-06-02T05:50:03.082Z,744.00
2018-06-02T05:51:03.105Z,744.00
2018-06-02T05:52:03.133Z,804.00
2018-06-02T05:53:03.155Z,888.00
2018-06-02T05:54:03.175Z,912.00
2018-06-02T05:55:03.199Z,964.00
2018-06-02T05:56:03.229Z,976.00
2018-06-02T05:57:03.247Z,1016.00
2018-06-02T05:58:03.269Z,1012.00
2018-06-02T05:59:03.294Z,996.00
2018-06-02T06:00:03.316Z,968.00
2018-06-02T06:01:03.341Z,984.00
2018-06-02T06:02:03.368Z,980.00
2018-06-02T06:03:03.387Z,1040.00
2018-06-02T06:04:03.411Z,1172.00
2018-06-02T06:05:03.435Z,1220.00
2018-06-02T06:06:03.456Z,1224.00
2018-06-02T06:07:03.481Z,1188.00
2018-06-02T06:08:03.504Z,1200.00
2018-06-02T06:09:03.527Z,1112.00
2018-06-02T06:10:03.549Z,1076.00
2018-06-02T06:11:03.573Z,1116.00
2018-06-02T06:12:03.647Z,1024.00
2018-06-02T06:13:03.621Z,1048.00
2018-06-02T06:14:03.645Z,952.00
2018-06-02T06:15:03.672Z,952.00
2018-06-02T06:16:03.692Z,1068.00
2018-06-02T06:17:03.715Z,952.00
2018-06-02T06:18:03.737Z,860.00
2018-06-02T06:19:03.760Z,960.00
2018-06-02T06:20:03.785Z,1024.00
2018-06-02T06:21:03.810Z,992.00
2018-06-02T06:22:03.837Z,1040.00
2018-06-02T06:23:03.858Z,1064.00
2018-06-02T06:24:03.880Z,1052.00
2018-06-02T06:25:03.903Z,1048.00
2018-06-02T06:26:03.926Z,1028.00
2018-06-02T06:27:03.949Z,1148.00
2018-06-02T06:28:03.974Z,1052.00
2018-06-02T06:29:03.997Z,964.00
2018-06-02T06:30:04.020Z,972.00
2018-06-02T06:31:04.043Z,1052.00
2018-06-02T06:32:04.067Z,1092.00
2018-06-02T06:33:04.107Z,1176.00
2018-06-02T06:34:04.114Z,1120.00
2018-06-02T06:35:04.138Z,1116.00
2018-06-02T06:36:04.214Z,1272.00
2018-06-02T06:37:04.187Z,1316.00
2018-06-02T06:38:04.210Z,1348.00
2018-06-02T06:39:04.249Z,1336.00
2018-06-02T06:40:04.256Z,1284.00
2018-06-02T06:41:04.286Z,1464.00
2018-06-02T06:42:04.303Z,1472.00
2018-06-02T06:43:04.326Z,1388.00
2018-06-02T06:44:04.350Z,1496.00
2018-06-02T06:45:04.374Z,1512.00
2018-06-02T06:46:04.398Z,1596.00
2018-06-02T06:47:04.420Z,1684.00
2018-06-02T06:48:04.445Z,1748.00
2018-06-02T06:49:04.470Z,1600.00
2018-06-02T06:50:04.491Z,1572.00
2018-06-02T06:51:04.515Z,1472.00
2018-06-02T06:52:04.540Z,1344.00
2018-06-02T06:53:04.563Z,1324.00
2018-06-02T06:54:04.587Z,1512.00
2018-06-02T06:55:04.611Z,1348.00
2018-06-02T06:56:04.636Z,1248.00
2018-06-02T06:57:04.658Z,1292.00
2018-06-02T06:58:04.685Z,1256.00
2018-06-02T06:59:04.705Z,1104.00
2018-06-02T07:00:04.730Z,916.00
2018-06-02T07:01:04.753Z,860.00
2018-06-02T07:02:04.776Z,840.00
2018-06-02T07:03:04.800Z,868.00
2018-06-02T07:04:04.828Z,844.00
2018-06-02T07:05:04.854Z,876.00
2018-06-02T07:06:04.873Z,940.00
2018-06-02T07:07:04.895Z,1048.00
2018-06-02T07:08:04.919Z,1012.00
2018-06-02T07:09:04.944Z,892.00
2018-06-02T07:10:04.966Z,932.00
2018-06-02T07:11:04.990Z,996.00
2018-06-02T07:12:05.121Z,988.00
2018-06-02T07:13:05.038Z,1024.00
2018-06-02T07:14:05.061Z,1188.00
2018-06-02T07:15:05.094Z,1144.00
2018-06-02T07:16:05.108Z,1108.00
2018-06-02T07:17:05.134Z,1372.00
2018-06-02T07:18:05.157Z,1348.00
2018-06-02T07:19:05.181Z,1492.00
2018-06-02T07:20:05.203Z,1392.00
2018-06-02T07:21:05.227Z,1276.00
2018-06-02T07:22:05.251Z,1336.00
2018-06-02T07:23:05.278Z,1616.00
2018-06-02T07:24:05.305Z,1488.00
2018-06-02T07:25:05.323Z,1632.00
2018-06-02T07:26:05.345Z,1876.00
2018-06-02T07:27:05.376Z,1848.00
2018-06-02T07:28:05.393Z,1976.00
2018-06-02T07:29:05.422Z,2008.00
2018-06-02T07:30:05.440Z,2220.00
2018-06-02T07:31:05.468Z,2160.00
2018-06-02T07:32:05.488Z,2124.00
2018-06-02T07:33:05.513Z,2356.00
2018-06-02T07:34:05.534Z,2112.00
2018-06-02T07:35:05.559Z,2524.00
2018-06-02T07:36:05.640Z,2616.00
2018-06-02T07:37:05.608Z,2376.00
2018-06-02T07:38:05.629Z,2252.00
2018-06-02T07:39:05.653Z,2624.00
2018-06-02T07:40:05.714Z,2672.00
2018-06-02T07:41:05.702Z,3000.00
2018-06-02T07:42:05.726Z,2760.00
2018-06-02T07:43:05.753Z,2884.00
2018-06-02T07:44:05.772Z,2792.00
2018-06-02T07:45:05.797Z,2504.00
2018-06-02T07:46:05.821Z,2236.00
2018-06-02T07:47:05.843Z,2404.00
2018-06-02T07:48:05.869Z,2580.00
2018-06-02T07:49:05.892Z,2616.00
2018-06-02T07:50:06.009Z,2768.00
2018-06-02T07:51:05.938Z,2684.00
2018-06-02T07:52:05.963Z,2492.00
2018-06-02T07:53:05.987Z,2744.00
2018-06-02T07:54:06.010Z,2836.00
2018-06-02T07:55:06.036Z,2720.00
2018-06-02T07:56:06.063Z,3532.00
2018-06-02T07:57:06.083Z,3360.00
2018-06-02T07:58:06.106Z,3092.00
2018-06-02T07:59:06.136Z,3160.00
2018-06-02T08:00:06.154Z,3644.00
2018-06-02T08:01:06.185Z,3956.00
2018-06-02T08:02:06.203Z,4280.00
2018-06-02T08:03:06.226Z,3432.00
2018-06-02T08:04:06.252Z,3160.00
2018-06-02T08:05:06.274Z,3044.00
2018-06-02T08:06:06.302Z,3040.00
2018-06-02T08:07:06.322Z,2432.00
2018-06-02T08:08:06.356Z,2876.00
2018-06-02T08:09:06.571Z,2828.00
2018-06-02T08:10:06.396Z,2548.00
2018-06-02T08:11:06.418Z,2876.00
2018-06-02T08:12:06.443Z,3300.00
2018-06-02T08:13:06.467Z,3524.00
2018-06-02T08:14:06.492Z,3412.00
2018-06-02T08:15:06.519Z,3216.00
2018-06-02T08:16:06.539Z,3276.00
2018-06-02T08:17:06.563Z,3120.00
2018-06-02T08:18:06.591Z,3180.00
2018-06-02T08:19:06.611Z,2996.00
2018-06-02T08:20:06.637Z,3028.00
2018-06-02T08:21:06.660Z,2940.00
2018-06-02T08:22:06.683Z,3028.00
2018-06-02T08:23:06.708Z,3108.00
2018-06-02T08:24:06.733Z,3180.00
2018-06-02T08:25:06.757Z,3036.00
2018-06-02T08:26:06.781Z,3136.00
2018-06-02T08:27:06.806Z,3128.00
2018-06-02T08:28:06.829Z,2872.00
2018-06-02T08:29:06.853Z,3132.00
2018-06-02T08:30:06.878Z,3136.00
2018-06-02T08:31:06.902Z,3264.00
2018-06-02T08:32:06.927Z,3200.00
2018-06-02T08:33:06.952Z,3264.00
2018-06-02T08:34:06.976Z,3208.00
2018-06-02T08:35:06.999Z,3308.00
2018-06-02T08:36:07.024Z,3432.00
2018-06-02T08:37:07.051Z,3580.00
2018-06-02T08:38:07.072Z,3608.00
2018-06-02T08:39:07.096Z,3412.00
2018-06-02T08:40:07.120Z,3256.00
2018-06-02T08:41:07.161Z,3516.00
2018-06-02T08:42:07.168Z,3640.00
2018-06-02T08:43:07.194Z,3908.00
2018-06-02T08:44:07.219Z,4008.00
2018-06-02T08:45:07.244Z,3748.00
2018-06-02T08:46:07.268Z,4332.00
2018-06-02T08:47:07.292Z,4404.00
2018-06-02T08:48:07.315Z,4268.00
2018-06-02T08:49:07.340Z,4140.00
2018-06-02T08:50:07.365Z,4056.00
2018-06-02T08:51:07.393Z,4592.00
2018-06-02T08:52:07.413Z,4484.00
2018-06-02T08:53:07.448Z,4328.00
2018-06-02T08:54:07.464Z,4660.00
2018-06-02T08:55:07.486Z,4032.00
2018-06-02T08:56:07.511Z,4500.00
2018-06-02T08:57:07.536Z,5188.00
2018-06-02T08:58:07.560Z,5452.00
2018-06-02T08:59:07.585Z,5496.00
2018-06-02T09:00:07.610Z,5300.00
2018-06-02T09:01:07.633Z,5080.00
2018-06-02T09:02:07.857Z,4956.00
2018-06-02T09:03:07.683Z,5220.00
2018-06-02T09:04:07.706Z,5828.00
2018-06-02T09:05:07.732Z,6872.00
2018-06-02T09:06:07.755Z,7008.00
2018-06-02T09:07:07.779Z,7512.00
2018-06-02T09:08:08.055Z,7308.00
2018-06-02T09:09:07.828Z,6992.00
2018-06-02T09:10:07.853Z,6836.00
2018-06-02T09:11:07.877Z,6168.00
2018-06-02T09:12:07.903Z,5784.00
2018-06-02T09:13:07.927Z,5792.00
2018-06-02T09:14:07.951Z,5800.00
2018-06-02T09:15:07.980Z,6388.00
2018-06-02T09:16:08.002Z,6904.00
2018-06-02T09:17:08.025Z,6692.00
2018-06-02T09:18:08.050Z,5736.00
2018-06-02T09:19:08.078Z,5396.00
2018-06-02T09:20:08.101Z,6216.00
2018-06-02T09:21:08.125Z,7676.00
2018-06-02T09:22:08.150Z,8840.00
2018-06-02T09:23:08.176Z,8424.00
2018-06-02T09:24:08.200Z,7256.00
2018-06-02T09:25:08.225Z,7148.00
2018-06-02T09:26:08.250Z,6176.00
2018-06-02T09:27:08.274Z,5100.00
2018-06-02T09:28:08.300Z,5180.00
2018-06-02T09:29:08.326Z,5956.00
2018-06-02T09:30:08.350Z,7152.00
2018-06-02T09:31:08.376Z,9104.00
2018-06-02T09:32:08.401Z,9624.00
2018-06-02T09:33:08.426Z,9208.00
2018-06-02T09:34:08.454Z,8596.00
2018-06-02T09:35:08.572Z,7504.00
2018-06-02T09:36:08.503Z,7732.00
2018-06-02T09:37:08.529Z,7808.00
2018-06-02T09:38:08.554Z,8328.00
2018-06-02T09:39:08.580Z,9292.00
2018-06-02T09:40:08.606Z,9396.00
2018-06-02T09:41:08.632Z,8188.00
2018-06-02T09:42:08.658Z,6992.00
2018-06-02T09:43:08.684Z,6276.00
2018-06-02T09:44:08.711Z,5668.00
2018-06-02T09:45:08.736Z,4888.00
2018-06-02T09:46:08.761Z,4500.00
2018-06-02T09:47:08.786Z,5492.00
2018-06-02T09:48:08.813Z,6964.00
2018-06-02T09:49:08.838Z,7844.00
2018-06-02T09:50:08.863Z,8088.00
2018-06-02T09:51:08.889Z,8000.00
2018-06-02T09:52:08.915Z,8060.00
2018-06-02T09:53:08.940Z,7780.00
2018-06-02T09:54:08.965Z,7288.00
2018-06-02T09:55:08.991Z,7192.00
2018-06-02T09:56:09.018Z,7816.00
2018-06-02T09:57:09.044Z,8200.00
2018-06-02T09:58:09.070Z,8420.00
2018-06-02T09:59:09.094Z,8384.00
2018-06-02T10:00:09.121Z,8012.00
2018-06-02T10:01:09.146Z,7704.00
2018-06-02T10:02:09.221Z,7092.00
2018-06-02T10:03:09.199Z,7012.00
2018-06-02T10:04:09.224Z,7184.00
2018-06-02T10:05:09.251Z,7104.00
2018-06-02T10:06:09.276Z,7300.00
2018-06-02T10:07:09.300Z,7100.00
2018-06-02T10:08:09.328Z,6316.00
2018-06-02T10:09:09.353Z,5828.00
2018-06-02T10:10:09.379Z,6768.00
2018-06-02T10:11:09.407Z,8472.00
2018-06-02T10:12:09.430Z,9052.00
2018-06-02T10:13:09.456Z,9032.00
2018-06-02T10:14:09.482Z,8724.00
2018-06-02T10:15:09.506Z,8520.00
2018-06-02T10:16:09.533Z,8364.00
2018-06-02T10:17:09.562Z,8664.00
2018-06-02T10:18:09.585Z,9024.00
2018-06-02T10:19:09.662Z,9100.00
2018-06-02T10:20:09.639Z,8684.00
2018-06-02T10:21:09.663Z,8204.00
2018-06-02T10:22:09.689Z,7808.00
2018-06-02T10:23:09.713Z,7164.00
2018-06-02T10:24:09.740Z,6288.00
2018-06-02T10:25:09.765Z,5876.00
2018-06-02T10:26:09.793Z,6292.00
2018-06-02T10:27:09.817Z,7468.00
2018-06-02T10:28:09.844Z,8436.00
2018-06-02T10:29:09.872Z,9228.00
2018-06-02T10:30:09.894Z,9584.00
2018-06-02T10:31:09.925Z,9600.00
2018-06-02T10:32:09.948Z,9724.00
2018-06-02T10:33:09.973Z,10104.00
2018-06-02T10:34:09.999Z,10272.00
2018-06-02T10:35:10.025Z,9868.00
2018-06-02T10:36:10.052Z,8916.00
2018-06-02T10:37:10.078Z,7212.00
2018-06-02T10:38:10.104Z,5764.00
2018-06-02T10:39:10.133Z,5292.00
2018-06-02T10:40:10.157Z,4820.00
2018-06-02T10:41:10.184Z,4196.00
2018-06-02T10:42:10.259Z,4164.00
2018-06-02T10:43:10.237Z,4100.00
2018-06-02T10:44:10.263Z,4340.00
2018-06-02T10:45:10.289Z,5468.00
2018-06-02T10:46:10.316Z,6356.00
2018-06-02T10:47:10.343Z,7080.00
2018-06-02T10:48:10.369Z,7792.00
2018-06-02T10:49:10.396Z,8340.00
2018-06-02T10:50:10.420Z,8596.00
2018-06-02T10:51:10.500Z,8664.00
2018-06-02T10:52:10.473Z,8868.00
2018-06-02T10:53:10.500Z,9252.00
2018-06-02T10:54:10.595Z,9612.00
2018-06-02T10:55:10.552Z,9620.00
2018-06-02T10:56:10.579Z,9148.00
2018-06-02T10:57:10.607Z,8296.00
2018-06-02T10:58:10.633Z,7404.00
2018-06-02T10:59:10.658Z,6856.00
2018-06-02T11:00:10.684Z,6432.00
2018-06-02T11:01:10.711Z,6212.00
2018-06-02T11:02:10.738Z,6352.00
2018-06-02T11:03:10.763Z,7020.00
2018-06-02T11:04:10.793Z,8056.00
2018-06-02T11:05:10.817Z,9272.00
2018-06-02T11:06:10.846Z,10320.00
2018-06-02T11:07:10.869Z,11092.00
2018-06-02T11:08:10.895Z,11580.00
2018-06-02T11:09:10.924Z,11616.00
2018-06-02T11:10:10.949Z,11644.00
2018-06-02T11:11:10.974Z,11284.00
2018-06-02T11:12:11.008Z,11052.00
2018-06-02T11:13:11.028Z,10660.00
2018-06-02T11:14:11.054Z,10144.00
2018-06-02T11:15:11.081Z,9784.00
2018-06-02T11:16:11.108Z,9052.00
2018-06-02T11:17:11.136Z,7740.00
2018-06-02T11:18:11.161Z,5852.00
2018-06-02T11:19:11.186Z,4152.00
2018-06-02T11:20:11.214Z,3400.00
2018-06-02T11:21:11.241Z,3420.00
2018-06-02T11:22:11.267Z,3540.00
2018-06-02T11:23:11.295Z,3528.00
2018-06-02T11:24:11.321Z,3440.00
2018-06-02T11:25:11.348Z,3404.00
2018-06-02T11:26:11.374Z,3448.00
2018-06-02T11:27:11.407Z,3336.00
2018-06-02T11:28:11.428Z,3028.00
2018-06-02T11:29:11.460Z,2904.00
2018-06-02T11:30:11.480Z,3084.00
2018-06-02T11:31:11.508Z,3428.00
2018-06-02T11:32:11.535Z,3764.00
2018-06-02T11:33:11.562Z,3832.00
2018-06-02T11:34:11.586Z,3752.00
2018-06-02T11:35:11.613Z,3460.00
2018-06-02T11:36:11.647Z,3156.00
2018-06-02T11:37:11.667Z,3016.00
2018-06-02T11:38:11.696Z,3116.00
2018-06-02T11:39:11.719Z,3316.00
2018-06-02T11:40:11.745Z,3116.00
2018-06-02T11:41:11.773Z,2740.00
2018-06-02T11:42:11.797Z,2404.00
2018-06-02T11:43:11.824Z,2368.00
2018-06-02T11:44:11.914Z,2420.00
2018-06-02T11:45:11.883Z,2400.00
2018-06-02T11:46:11.901Z,2656.00
2018-06-02T11:47:11.979Z,3292.00
2018-06-02T11:48:11.955Z,3800.00
2018-06-02T11:49:11.981Z,4100.00
2018-06-02T11:50:12.009Z,4616.00
2018-06-02T11:51:12.032Z,5396.00
2018-06-02T11:52:12.060Z,6352.00
2018-06-02T11:53:12.085Z,7380.00
2018-06-02T11:54:12.109Z,8400.00
2018-06-02T11:55:12.137Z,9264.00
2018-06-02T11:56:12.162Z,9880.00
2018-06-02T11:57:12.188Z,10548.00
2018-06-02T11:58:12.213Z,10792.00
2018-06-02T11:59:12.239Z,10916.00
2018-06-02T12:00:12.266Z,10780.00
2018-06-02T12:01:12.293Z,10376.00
2018-06-02T12:02:12.317Z,9396.00
2018-06-02T12:03:12.343Z,8260.00
2018-06-02T12:04:12.370Z,7380.00
2018-06-02T12:05:12.398Z,6732.00
2018-06-02T12:06:12.423Z,6444.00
2018-06-02T12:07:12.454Z,6296.00
2018-06-02T12:08:12.476Z,6112.00
2018-06-02T12:09:12.502Z,5820.00
2018-06-02T12:10:12.528Z,5556.00
2018-06-02T12:11:12.554Z,5276.00
2018-06-02T12:12:12.580Z,5140.00
2018-06-02T12:13:12.609Z,5240.00
2018-06-02T12:14:12.633Z,5648.00
2018-06-02T12:15:12.660Z,6220.00
2018-06-02T12:16:12.687Z,6632.00
2018-06-02T12:17:12.715Z,6764.00
2018-06-02T12:18:12.739Z,6672.00
2018-06-02T12:19:12.765Z,6580.00
2018-06-02T12:20:12.792Z,6300.00
2018-06-02T12:21:12.817Z,5816.00
2018-06-02T12:22:12.843Z,5776.00
2018-06-02T12:23:12.870Z,5896.00
2018-06-02T12:24:12.896Z,6112.00
2018-06-02T12:25:12.922Z,6488.00
2018-06-02T12:26:12.947Z,6884.00
2018-06-02T12:27:12.975Z,6972.00
2018-06-02T12:28:13.047Z,6704.00
2018-06-02T12:29:13.029Z,6408.00
2018-06-02T12:30:13.055Z,6276.00